createdAt,value
2023-02-12T00:01:23.160Z,101871.44
2023-02-12T00:03:50.814Z,101874.63
2023-02-12T00:06:17.717Z,101872.03
2023-02-12T00:08:44.743Z,101883.53
2023-02-12T00:11:17.345Z,101874.88
2023-02-12T00:13:44.721Z,101880.38
2023-02-12T00:16:14.878Z,101879.50
2023-02-12T00:18:42.572Z,101879.94
2023-02-12T00:21:09.704Z,101890.78
2023-02-12T00:23:38.379Z,101890.16
2023-02-12T00:26:07.485Z,101877.34
2023-02-12T00:28:34.582Z,101876.94
2023-02-12T00:31:11.993Z,101871.75
2023-02-12T00:33:39.346Z,101875.00
2023-02-12T00:36:10.034Z,101861.94
2023-02-12T00:38:36.910Z,101861.72
2023-02-12T00:41:04.265Z,101855.12
2023-02-12T00:43:32.338Z,101875.91
2023-02-12T00:45:59.520Z,101892.22
2023-02-12T00:48:26.792Z,101883.19
2023-02-12T00:50:53.675Z,101890.59
2023-02-12T00:53:20.836Z,101899.62
2023-02-12T00:55:47.717Z,101906.94
2023-02-12T00:58:16.153Z,101903.16
2023-02-12T01:00:44.890Z,101904.31
2023-02-12T01:03:11.924Z,101901.16
2023-02-12T01:05:38.826Z,101911.97
2023-02-12T01:08:05.837Z,101905.22
2023-02-12T01:10:33.146Z,101904.66
2023-02-12T01:13:00.124Z,101907.06
2023-02-12T01:15:26.970Z,101911.06
2023-02-12T01:17:54.595Z,101896.34
2023-02-12T01:20:24.539Z,101900.22
2023-02-12T01:22:52.047Z,101897.50
2023-02-12T01:25:20.958Z,101893.41
2023-02-12T01:27:48.063Z,101887.97
2023-02-12T01:30:15.857Z,101898.91
2023-02-12T01:32:44.219Z,101899.56
2023-02-12T01:35:11.288Z,101892.44
2023-02-12T01:37:42.394Z,101907.53
2023-02-12T01:40:20.032Z,101903.78
2023-02-12T01:42:46.899Z,101902.47
2023-02-12T01:45:13.934Z,101908.56
2023-02-12T01:47:42.475Z,101897.56
2023-02-12T01:50:13.461Z,101899.28
2023-02-12T01:52:44.190Z,101904.06
2023-02-12T01:55:12.034Z,101892.94
2023-02-12T01:57:43.020Z,101901.78
2023-02-12T02:00:17.777Z,101905.31
2023-02-12T02:02:52.974Z,101902.00
2023-02-12T02:05:39.147Z,101899.84
2023-02-12T02:08:07.086Z,101891.91
2023-02-12T02:10:33.953Z,101888.78
2023-02-12T02:13:20.111Z,101894.78
2023-02-12T02:15:50.874Z,101898.44
2023-02-12T02:18:35.380Z,101889.44
2023-02-12T02:21:18.259Z,101888.75
2023-02-12T02:24:16.259Z,101899.81
2023-02-12T02:26:48.947Z,101898.13
2023-02-12T02:29:40.752Z,101893.72
2023-02-12T02:32:13.457Z,101907.75
2023-02-12T02:35:06.339Z,101895.41
2023-02-12T02:37:58.208Z,101896.25
2023-02-12T02:40:31.941Z,101896.69
2023-02-12T02:43:07.903Z,101899.62
2023-02-12T02:45:43.406Z,101896.72
2023-02-12T02:48:17.795Z,101899.41
2023-02-12T02:50:52.889Z,101901.03
2023-02-12T02:53:30.348Z,101907.16
2023-02-12T02:56:00.332Z,101905.59
2023-02-12T02:58:35.963Z,101907.50
2023-02-12T03:01:18.991Z,101913.72
2023-02-12T03:03:55.118Z,101915.97
2023-02-12T03:06:32.912Z,101915.72
2023-02-12T03:09:11.659Z,101923.72
2023-02-12T03:11:38.630Z,101933.50
2023-02-12T03:14:10.194Z,101937.00
2023-02-12T03:16:59.870Z,101935.78
2023-02-12T03:19:31.086Z,101930.00
2023-02-12T03:22:04.736Z,101942.56
2023-02-12T03:24:40.814Z,101938.31
2023-02-12T03:27:13.566Z,101940.81
2023-02-12T03:29:40.624Z,101942.84
2023-02-12T03:32:21.781Z,101945.72
2023-02-12T03:35:04.484Z,101946.19
2023-02-12T03:37:44.074Z,101944.16
2023-02-12T03:40:23.852Z,101955.37
2023-02-12T03:42:53.491Z,101958.41
2023-02-12T03:45:35.496Z,101952.72
2023-02-12T03:48:13.759Z,101961.41
2023-02-12T03:50:55.659Z,101964.56
2023-02-12T03:53:22.820Z,101970.38
2023-02-12T03:55:53.552Z,101964.75
2023-02-12T03:58:26.052Z,101969.78
2023-02-12T04:00:53.406Z,101979.88
2023-02-12T04:03:20.841Z,101982.50
2023-02-12T04:05:47.833Z,101965.16
2023-02-12T04:08:14.852Z,101970.62
2023-02-12T04:11:01.838Z,101967.12
2023-02-12T04:14:15.384Z,101955.34
2023-02-12T04:16:51.943Z,101943.47
2023-02-12T04:19:29.777Z,101934.09
2023-02-12T04:22:26.386Z,101940.12
2023-02-12T04:25:04.934Z,101955.56
2023-02-12T04:27:57.004Z,101963.25
2023-02-12T04:30:39.121Z,101970.88
2023-02-12T04:33:11.006Z,101973.47
2023-02-12T04:36:03.262Z,101973.03
2023-02-12T04:38:40.933Z,101972.53
2023-02-12T04:41:09.790Z,101961.66
2023-02-12T04:43:37.997Z,101962.09
2023-02-12T04:46:07.346Z,101974.19
2023-02-12T04:48:36.336Z,101982.19
2023-02-12T04:51:03.390Z,101983.50
2023-02-12T04:53:30.300Z,101992.87
2023-02-12T04:55:57.515Z,101985.03
2023-02-12T04:58:24.543Z,102010.03
2023-02-12T05:00:53.855Z,102002.34
2023-02-12T05:03:20.801Z,102013.47
2023-02-12T05:05:47.675Z,102012.75
2023-02-12T05:08:14.508Z,101994.22
2023-02-12T05:10:42.300Z,101992.97
2023-02-12T05:13:09.239Z,101992.37
2023-02-12T05:15:38.614Z,101997.62
2023-02-12T05:18:05.780Z,102000.09
2023-02-12T05:20:32.700Z,101992.16
2023-02-12T05:22:59.670Z,101989.28
2023-02-12T05:25:26.872Z,102002.84
2023-02-12T05:27:53.769Z,102010.97
2023-02-12T05:30:20.774Z,102015.97
2023-02-12T05:32:48.050Z,102005.03
2023-02-12T05:35:16.004Z,102023.41
2023-02-12T05:37:42.914Z,102026.41
2023-02-12T05:40:10.350Z,102027.44
2023-02-12T05:42:37.356Z,102044.50
2023-02-12T05:45:04.590Z,102057.03
2023-02-12T05:47:31.404Z,102053.66
2023-02-12T05:49:58.370Z,102040.81
2023-02-12T05:52:26.427Z,102047.88
2023-02-12T05:54:53.330Z,102060.47
2023-02-12T05:57:20.194Z,102062.31
2023-02-12T05:59:46.970Z,102052.59
2023-02-12T06:02:13.895Z,102067.16
2023-02-12T06:04:40.778Z,102076.94
2023-02-12T06:07:07.669Z,102068.22
2023-02-12T06:09:37.600Z,102067.31
2023-02-12T06:12:04.709Z,102078.75
2023-02-12T06:14:32.750Z,102082.78
2023-02-12T06:16:59.788Z,102087.31
2023-02-12T06:19:26.760Z,102082.59
2023-02-12T06:21:53.772Z,102082.84
2023-02-12T06:24:20.670Z,102081.19
2023-02-12T06:26:51.019Z,102073.91
2023-02-12T06:29:22.134Z,102083.38
2023-02-12T06:31:53.420Z,102094.16
2023-02-12T06:34:22.565Z,102089.78
2023-02-12T06:36:50.658Z,102095.28
2023-02-12T06:39:19.673Z,102103.56
2023-02-12T06:41:47.078Z,102096.59
2023-02-12T06:44:15.009Z,102110.84
2023-02-12T06:46:43.266Z,102110.78
2023-02-12T06:49:12.735Z,102103.75
2023-02-12T06:51:41.724Z,102110.47
2023-02-12T06:54:19.842Z,102104.69
2023-02-12T06:56:58.221Z,102107.91
2023-02-12T06:59:33.774Z,102110.84
2023-02-12T07:02:01.113Z,102097.78
2023-02-12T07:04:36.240Z,102104.59
2023-02-12T07:07:08.190Z,102110.47
2023-02-12T07:09:35.384Z,102098.03
2023-02-12T07:12:02.387Z,102096.12
2023-02-12T07:14:29.652Z,102106.78
2023-02-12T07:16:57.544Z,102108.88
2023-02-12T07:19:27.752Z,102117.00
2023-02-12T07:21:54.855Z,102115.44
2023-02-12T07:24:22.605Z,102123.59
2023-02-12T07:26:51.101Z,102146.31
2023-02-12T07:29:18.629Z,102149.63
2023-02-12T07:31:45.783Z,102147.56
2023-02-12T07:34:13.071Z,102152.63
2023-02-12T07:36:40.815Z,102144.06
2023-02-12T07:39:07.989Z,102149.78
2023-02-12T07:41:36.674Z,102150.69
2023-02-12T07:44:07.861Z,102153.62
2023-02-12T07:46:38.335Z,102148.28
2023-02-12T07:49:06.844Z,102154.12
2023-02-12T07:51:36.601Z,102145.25
2023-02-12T07:54:04.655Z,102155.50
2023-02-12T07:56:35.775Z,102158.56
2023-02-12T07:59:15.537Z,102157.56
2023-02-12T08:01:54.025Z,102155.44
2023-02-12T08:04:24.400Z,102163.94
2023-02-12T08:06:54.520Z,102150.81
2023-02-12T08:09:25.668Z,102161.50
2023-02-12T08:11:53.000Z,102175.50
2023-02-12T08:14:23.154Z,102179.22
2023-02-12T08:16:51.536Z,102182.00
2023-02-12T08:19:22.717Z,102202.84
2023-02-12T08:21:53.177Z,102201.28
2023-02-12T08:24:20.234Z,102188.81
2023-02-12T08:26:47.161Z,102196.84
2023-02-12T08:29:17.964Z,102203.03
2023-02-12T08:31:47.665Z,102200.81
2023-02-12T08:34:18.247Z,102199.28
2023-02-12T08:36:46.692Z,102200.03
2023-02-12T08:39:16.118Z,102201.03
2023-02-12T08:41:48.562Z,102198.69
2023-02-12T08:44:16.283Z,102200.88
2023-02-12T08:46:48.868Z,102207.88
2023-02-12T08:49:18.294Z,102203.84
2023-02-12T08:51:49.059Z,102201.50
2023-02-12T08:54:21.594Z,102209.44
2023-02-12T08:56:48.516Z,102212.38
2023-02-12T08:59:16.706Z,102228.94
2023-02-12T09:01:44.437Z,102229.81
2023-02-12T09:04:18.134Z,102232.88
2023-02-12T09:06:46.467Z,102225.09
2023-02-12T09:09:14.309Z,102242.59
2023-02-12T09:11:42.029Z,102252.25
2023-02-12T09:14:12.451Z,102250.87
2023-02-12T09:16:42.539Z,102266.06
2023-02-12T09:19:13.212Z,102266.00
2023-02-12T09:21:41.394Z,102266.94
2023-02-12T09:24:08.976Z,102258.06
2023-02-12T09:26:36.121Z,102256.94
2023-02-12T09:29:05.575Z,102265.13
2023-02-12T09:31:33.774Z,102277.97
2023-02-12T09:34:03.805Z,102277.16
2023-02-12T09:36:31.692Z,102285.16
2023-02-12T09:38:59.921Z,102293.12
2023-02-12T09:41:39.347Z,102301.59
2023-02-12T09:44:18.139Z,102300.38
2023-02-12T09:46:49.612Z,102301.81
2023-02-12T09:49:26.890Z,102301.84
2023-02-12T09:51:55.399Z,102303.34
2023-02-12T09:54:34.547Z,102311.63
2023-02-12T09:57:04.969Z,102311.31
2023-02-12T09:59:47.713Z,102310.84
2023-02-12T10:02:16.237Z,102324.25
2023-02-12T10:04:59.804Z,102317.06
2023-02-12T10:07:40.594Z,102311.87
2023-02-12T10:10:42.911Z,102310.19
2023-02-12T10:13:35.464Z,102319.06
2023-02-12T10:16:26.068Z,102328.09
2023-02-12T10:19:22.463Z,102324.53
2023-02-12T10:22:33.932Z,102331.06
2023-02-12T10:25:18.568Z,102330.94
2023-02-12T10:27:55.250Z,102336.78
2023-02-12T10:30:31.441Z,102335.41
2023-02-12T10:33:08.149Z,102332.72
2023-02-12T10:35:35.793Z,102329.22
2023-02-12T10:38:08.066Z,102324.03
2023-02-12T10:40:38.550Z,102324.75
2023-02-12T10:43:05.520Z,102318.41
2023-02-12T10:45:33.727Z,102312.34
2023-02-12T10:48:10.943Z,102301.97
2023-02-12T10:50:59.676Z,102300.50
2023-02-12T10:53:33.982Z,102305.16
2023-02-12T10:56:19.014Z,102307.69
2023-02-12T10:58:55.420Z,102299.47
2023-02-12T11:01:33.555Z,102302.34
2023-02-12T11:04:19.949Z,102298.09
2023-02-12T11:06:59.780Z,102295.31
2023-02-12T11:09:53.967Z,102288.50
2023-02-12T11:12:43.723Z,102291.19
2023-02-12T11:15:15.183Z,102285.41
2023-02-12T11:17:45.600Z,102298.53
2023-02-12T11:20:18.702Z,102295.31
2023-02-12T11:22:58.306Z,102282.78
2023-02-12T11:25:29.210Z,102285.66
2023-02-12T11:28:05.447Z,102279.28
2023-02-12T11:30:33.415Z,102279.72
2023-02-12T11:33:22.171Z,102293.44
2023-02-12T11:35:52.056Z,102275.09
2023-02-12T11:38:23.762Z,102274.16
2023-02-12T11:40:56.828Z,102277.37
2023-02-12T11:43:25.279Z,102280.13
2023-02-12T11:45:56.553Z,102278.09
2023-02-12T11:48:27.869Z,102280.50
2023-02-12T11:50:58.224Z,102272.34
2023-02-12T11:53:33.643Z,102279.50
2023-02-12T11:56:10.405Z,102280.06
2023-02-12T11:58:39.433Z,102277.03
2023-02-12T12:01:19.670Z,102267.78
2023-02-12T12:04:05.505Z,102265.81
2023-02-12T12:07:17.774Z,102267.16
2023-02-12T12:10:25.981Z,102261.59
2023-02-12T12:13:17.790Z,102261.75
2023-02-12T12:16:15.432Z,102261.06
2023-02-12T12:19:07.685Z,102263.75
2023-02-12T12:21:40.210Z,102254.31
2023-02-12T12:24:35.041Z,102254.81
2023-02-12T12:27:35.771Z,102248.91
2023-02-12T12:30:11.935Z,102251.47
2023-02-12T12:32:48.495Z,102245.16
2023-02-12T12:36:18.809Z,102242.56
2023-02-12T12:38:58.040Z,102246.72
2023-02-12T12:41:36.582Z,102236.72
2023-02-12T12:44:52.230Z,102240.88
2023-02-12T12:47:54.977Z,102248.16
2023-02-12T12:50:54.695Z,102232.88
2023-02-12T12:53:53.594Z,102233.59
2023-02-12T12:56:34.718Z,102231.41
2023-02-12T12:59:38.617Z,102243.94
2023-02-12T13:02:41.634Z,102249.72
2023-02-12T13:05:23.707Z,102248.41
2023-02-12T13:08:14.509Z,102253.13
2023-02-12T13:10:51.317Z,102247.72
2023-02-12T13:13:21.390Z,102249.12
2023-02-12T13:15:53.940Z,102249.03
2023-02-12T13:18:29.531Z,102245.91
2023-02-12T13:20:56.348Z,102250.53
2023-02-12T13:23:45.647Z,102249.47
2023-02-12T13:26:40.831Z,102250.66
2023-02-12T13:29:17.174Z,102245.94
2023-02-12T13:32:02.012Z,102250.34
2023-02-12T13:34:34.738Z,102250.00
2023-02-12T13:37:04.686Z,102255.56
2023-02-12T13:39:43.489Z,102249.66
2023-02-12T13:42:43.497Z,102251.31
2023-02-12T13:45:25.615Z,102252.94
2023-02-12T13:48:23.394Z,102259.03
2023-02-12T13:51:21.948Z,102262.69
2023-02-12T13:54:13.913Z,102257.81
2023-02-12T13:57:08.676Z,102257.75
2023-02-12T13:59:35.656Z,102261.19
2023-02-12T14:02:05.965Z,102261.19
2023-02-12T14:04:34.205Z,102262.78
2023-02-12T14:07:10.212Z,102261.19
2023-02-12T14:09:50.463Z,102262.56
2023-02-12T14:12:26.620Z,102254.41
2023-02-12T14:15:07.900Z,102269.12
2023-02-12T14:17:34.737Z,102262.38
2023-02-12T14:20:23.206Z,102259.03
2023-02-12T14:22:50.341Z,102261.56
2023-02-12T14:25:17.149Z,102255.03
2023-02-12T14:27:59.635Z,102258.06
2023-02-12T14:30:26.980Z,102264.81
2023-02-12T14:33:09.561Z,102263.87
2023-02-12T14:35:37.881Z,102259.53
2023-02-12T14:38:18.119Z,102271.75
2023-02-12T14:40:47.502Z,102276.53
2023-02-12T14:43:32.158Z,102272.31
2023-02-12T14:46:19.230Z,102271.66
2023-02-12T14:48:56.105Z,102271.13
2023-02-12T14:51:36.596Z,102270.19
2023-02-12T14:54:12.313Z,102276.53
2023-02-12T14:56:47.816Z,102274.13
2023-02-12T14:59:21.304Z,102280.13
2023-02-12T15:01:50.496Z,102283.06
2023-02-12T15:04:29.091Z,102275.53
2023-02-12T15:06:59.147Z,102273.72
2023-02-12T15:09:41.961Z,102277.28
2023-02-12T15:12:20.226Z,102276.47
2023-02-12T15:14:56.359Z,102279.47
2023-02-12T15:17:30.103Z,102285.22
2023-02-12T15:20:03.027Z,102281.97
2023-02-12T15:22:38.309Z,102283.31
2023-02-12T15:25:43.902Z,102288.94
2023-02-12T15:28:36.520Z,102286.03
2023-02-12T15:31:09.930Z,102284.41
2023-02-12T15:33:41.811Z,102286.69
2023-02-12T15:36:11.464Z,102292.00
2023-02-12T15:38:44.070Z,102295.34
2023-02-12T15:41:26.653Z,102289.47
2023-02-12T15:43:53.581Z,102295.41
2023-02-12T15:46:21.367Z,102300.63
2023-02-12T15:48:48.466Z,102305.63
2023-02-12T15:51:35.914Z,102304.72
2023-02-12T15:54:08.789Z,102295.97
2023-02-12T15:56:41.345Z,102308.72
2023-02-12T15:59:20.147Z,102304.63
2023-02-12T16:02:00.694Z,102298.25
2023-02-12T16:04:31.507Z,102300.41
2023-02-12T16:07:00.415Z,102307.19
2023-02-12T16:09:28.963Z,102313.72
2023-02-12T16:11:58.567Z,102311.50
2023-02-12T16:14:48.882Z,102308.19
2023-02-12T16:17:34.766Z,102311.34
2023-02-12T16:20:22.977Z,102307.75
2023-02-12T16:22:52.709Z,102316.88
2023-02-12T16:25:26.734Z,102321.59
2023-02-12T16:28:00.012Z,102321.28
2023-02-12T16:30:33.616Z,102319.00
2023-02-12T16:33:03.554Z,102320.50
2023-02-12T16:35:32.242Z,102320.50
2023-02-12T16:38:03.064Z,102330.25
2023-02-12T16:40:33.901Z,102335.63
2023-02-12T16:43:04.715Z,102334.38
2023-02-12T16:45:40.151Z,102335.37
2023-02-12T16:48:09.128Z,102341.69
2023-02-12T16:50:43.738Z,102349.91
2023-02-12T16:53:47.546Z,102345.78
2023-02-12T16:56:18.486Z,102358.31
2023-02-12T16:58:47.135Z,102358.19
2023-02-12T17:01:25.416Z,102361.75
2023-02-12T17:03:53.656Z,102371.72
2023-02-12T17:06:23.393Z,102380.31
2023-02-12T17:08:50.888Z,102378.25
2023-02-12T17:11:18.769Z,102381.91
2023-02-12T17:13:49.998Z,102393.56
2023-02-12T17:16:29.702Z,102397.22
2023-02-12T17:18:58.017Z,102401.59
2023-02-12T17:21:38.209Z,102405.87
2023-02-12T17:24:15.490Z,102413.59
2023-02-12T17:26:42.436Z,102413.59
2023-02-12T17:29:09.342Z,102418.34
2023-02-12T17:31:37.834Z,102421.31
2023-02-12T17:34:05.883Z,102419.41
2023-02-12T17:36:33.477Z,102418.41
2023-02-12T17:39:01.498Z,102423.78
2023-02-12T17:41:28.409Z,102423.84
2023-02-12T17:43:56.408Z,102431.69
2023-02-12T17:46:25.444Z,102426.34
2023-02-12T17:48:52.412Z,102431.81
2023-02-12T17:51:20.122Z,102437.34
2023-02-12T17:53:47.408Z,102439.91
2023-02-12T17:56:20.488Z,102439.72
2023-02-12T17:58:48.362Z,102429.59
2023-02-12T18:01:18.378Z,102433.72
2023-02-12T18:03:45.839Z,102440.81
2023-02-12T18:06:16.744Z,102437.25
2023-02-12T18:08:43.734Z,102444.34
2023-02-12T18:11:12.514Z,102449.59
2023-02-12T18:13:39.720Z,102437.44
2023-02-12T18:16:08.563Z,102442.44
2023-02-12T18:18:36.692Z,102450.25
2023-02-12T18:21:09.123Z,102452.81
2023-02-12T18:23:36.674Z,102448.13
2023-02-12T18:26:12.880Z,102461.31
2023-02-12T18:28:39.994Z,102466.44
2023-02-12T18:31:07.623Z,102459.72
2023-02-12T18:33:35.681Z,102463.75
2023-02-12T18:36:08.943Z,102463.66
2023-02-12T18:38:37.735Z,102464.34
2023-02-12T18:41:14.621Z,102465.94
2023-02-12T18:43:43.399Z,102465.56
2023-02-12T18:46:14.223Z,102478.13
2023-02-12T18:48:41.597Z,102476.56
2023-02-12T18:51:10.933Z,102479.34
2023-02-12T18:53:38.127Z,102470.31
2023-02-12T18:56:07.001Z,102471.19
2023-02-12T18:58:34.343Z,102481.16
2023-02-12T19:01:01.968Z,102486.31
2023-02-12T19:03:28.976Z,102483.94
2023-02-12T19:06:04.186Z,102483.22
2023-02-12T19:08:31.460Z,102482.28
2023-02-12T19:10:58.730Z,102479.88
2023-02-12T19:13:25.907Z,102486.72
2023-02-12T19:15:53.154Z,102481.81
2023-02-12T19:18:20.149Z,102480.78
2023-02-12T19:20:47.038Z,102491.34
2023-02-12T19:23:14.036Z,102497.69
2023-02-12T19:25:43.559Z,102504.91
2023-02-12T19:28:11.450Z,102493.56
2023-02-12T19:30:40.630Z,102502.53
2023-02-12T19:33:07.980Z,102498.72
2023-02-12T19:35:37.231Z,102493.66
2023-02-12T19:38:04.241Z,102497.72
2023-02-12T19:40:32.550Z,102491.88
2023-02-12T19:42:59.509Z,102499.38
2023-02-12T19:45:26.535Z,102492.91
2023-02-12T19:47:53.418Z,102484.78
2023-02-12T19:50:20.456Z,102485.88
2023-02-12T19:52:47.361Z,102488.06
2023-02-12T19:55:14.347Z,102486.72
2023-02-12T19:57:41.468Z,102482.09
2023-02-12T20:00:09.255Z,102485.06
2023-02-12T20:02:36.422Z,102491.25
2023-02-12T20:05:03.304Z,102492.31
2023-02-12T20:07:31.409Z,102489.22
2023-02-12T20:09:58.290Z,102483.87
2023-02-12T20:12:25.207Z,102488.38
2023-02-12T20:14:54.823Z,102486.25
2023-02-12T20:17:21.782Z,102488.38
2023-02-12T20:19:48.739Z,102488.81
2023-02-12T20:22:15.681Z,102494.37
2023-02-12T20:24:42.652Z,102485.78
2023-02-12T20:27:11.237Z,102478.63
2023-02-12T20:29:38.317Z,102485.34
2023-02-12T20:32:05.427Z,102484.09
2023-02-12T20:34:39.742Z,102483.28
2023-02-12T20:37:17.403Z,102493.75
2023-02-12T20:39:44.263Z,102499.97
2023-02-12T20:42:12.158Z,102495.50
2023-02-12T20:44:39.100Z,102494.28
2023-02-12T20:47:05.961Z,102502.00
2023-02-12T20:49:32.982Z,102502.47
2023-02-12T20:51:59.880Z,102506.06
2023-02-12T20:54:26.819Z,102510.16
2023-02-12T20:56:53.760Z,102509.84
2023-02-12T20:59:20.713Z,102504.81
2023-02-12T21:01:48.207Z,102508.13
2023-02-12T21:04:18.633Z,102509.47
2023-02-12T21:06:46.102Z,102511.56
2023-02-12T21:09:15.122Z,102511.00
2023-02-12T21:11:45.764Z,102520.97
2023-02-12T21:14:23.543Z,102515.97
2023-02-12T21:16:52.422Z,102523.47
2023-02-12T21:19:19.459Z,102537.03
2023-02-12T21:21:46.729Z,102527.06
2023-02-12T21:24:17.347Z,102546.19
2023-02-12T21:26:44.756Z,102545.97
2023-02-12T21:29:11.914Z,102543.59
2023-02-12T21:31:43.884Z,102542.41
2023-02-12T21:34:14.930Z,102541.25
2023-02-12T21:36:45.344Z,102542.69
2023-02-12T21:39:25.016Z,102543.38
2023-02-12T21:41:54.963Z,102548.28
2023-02-12T21:44:23.496Z,102545.81
2023-02-12T21:46:50.876Z,102554.97
2023-02-12T21:49:25.013Z,102557.12
2023-02-12T21:51:54.527Z,102545.16
2023-02-12T21:54:21.829Z,102551.56
2023-02-12T21:56:49.895Z,102549.28
2023-02-12T21:59:18.101Z,102555.78
2023-02-12T22:01:48.651Z,102557.06
2023-02-12T22:04:16.552Z,102546.59
2023-02-12T22:06:46.373Z,102547.28
2023-02-12T22:09:17.885Z,102550.44
2023-02-12T22:11:45.304Z,102550.22
2023-02-12T22:14:15.484Z,102547.56
2023-02-12T22:16:42.890Z,102555.53
2023-02-12T22:19:11.699Z,102560.97
2023-02-12T22:21:41.400Z,102567.00
2023-02-12T22:24:11.033Z,102561.97
2023-02-12T22:26:38.050Z,102573.81
2023-02-12T22:29:07.555Z,102563.03
2023-02-12T22:31:37.537Z,102568.22
2023-02-12T22:34:07.599Z,102565.06
2023-02-12T22:36:36.283Z,102571.81
2023-02-12T22:39:04.448Z,102569.88
2023-02-12T22:41:31.410Z,102575.56
2023-02-12T22:44:00.354Z,102577.88
2023-02-12T22:46:29.122Z,102573.56
2023-02-12T22:48:56.293Z,102563.38
2023-02-12T22:51:26.466Z,102574.56
2023-02-12T22:53:54.523Z,102572.50
2023-02-12T22:56:21.867Z,102567.97
2023-02-12T22:58:48.944Z,102572.50
2023-02-12T23:01:18.493Z,102571.47
2023-02-12T23:03:46.163Z,102570.88
2023-02-12T23:06:19.690Z,102579.94
2023-02-12T23:08:51.038Z,102566.69
2023-02-12T23:11:18.552Z,102565.97
2023-02-12T23:13:46.207Z,102570.62
2023-02-12T23:16:13.368Z,102571.31
2023-02-12T23:18:40.311Z,102579.34
2023-02-12T23:21:07.354Z,102583.53
2023-02-12T23:23:34.395Z,102573.63
2023-02-12T23:26:01.491Z,102577.50
2023-02-12T23:28:28.601Z,102577.03
2023-02-12T23:30:55.712Z,102579.13
2023-02-12T23:33:23.075Z,102572.59
2023-02-12T23:35:50.306Z,102579.03
2023-02-12T23:38:17.709Z,102576.72
2023-02-12T23:40:44.773Z,102571.47
2023-02-12T23:43:11.740Z,102579.34
2023-02-12T23:45:38.798Z,102577.94
2023-02-12T23:48:05.934Z,102575.19
2023-02-12T23:50:32.986Z,102576.16
2023-02-12T23:52:59.891Z,102577.72
2023-02-12T23:55:26.811Z,102578.13
2023-02-12T23:57:53.695Z,102581.88
